• Join FlightAware (Why Join?)
  • Login
  • US Flag 
01:15AM EDT


 

Airport Tracker/Info


-or-


 

Live Flight TrackerFlight Track Log ✈ GJS3657 ✈ 21-Jun-2013 ✈ KALB - KORD

Flight Track Log - Related Links

Times and Time Zones

All times are in EDT time to prevent confusion due to time zone crossing. See the GJS3657 flight status page for this flight to view local times or setup timezone preferences in your user account.

Time Position Orientation Groundspeed Altitude Reporting Facility
EDT Latitude Longitude Course Direction KTS MPH feet Rate Location/Type
07:13AM 42.7672 -73.8061 276° West 168 193 1,000  Level Boston Center
07:14AM 42.8131 -73.8156 351° North 202 232 2,700 2,520 Climbing Boston Center
07:15AM 42.8972 -73.9139 319° Northwest 261 300 7,400 2,700 Climbing Boston Center
07:16AM 42.9506 -73.9831 317° Northwest 256 295 9,800 2,340 Climbing Boston Center
07:17AM 43.0226 -74.2327 276° West  Level FlightAware Approximate
07:17AM 43.0100 -74.0586 317° Northwest 278 320 12,100  Level Boston Center
07:18AM 43.0320 -74.3637 276° West  Level FlightAware Approximate
07:18AM 43.0733 -74.1456 315° West 301 346 14,100  Level Boston Center
07:19AM 43.0819 -74.2653 276° West 306 352 16,500 1,980 Climbing Boston Center
07:20AM 43.0903 -74.3933 275° West 332 382 18,100 1,560 Climbing Boston Center
07:21AM 43.0964 -74.5100 274° West 344 396 19,700 1,680 Climbing Boston Center
07:22AM 43.1022 -74.6439 273° West 354 407 21,500 1,620 Climbing Boston Center
07:23AM 43.1078 -74.7836 273° West 359 413 23,000 840 Climbing Boston Center
07:24AM 43.1133 -74.9203 273° West 364 419 23,200 660 Climbing Boston Center
07:25AM 43.1186 -75.0600 273° West 370 426 24,400 1,260 Climbing Boston Center
07:26AM 43.1231 -75.2222 272° West 376 433 25,800 1,380 Climbing Boston Center
07:27AM 43.1317 -75.3706 275° West 388 447 27,200 1,260 Climbing Boston Center
07:28AM 43.1572 -75.5142 284° West 388 447 28,400 1,020 Climbing Boston Center
07:29AM 43.1950 -75.6528 291° West 388 447 29,300 780 Climbing Boston Center
07:30AM 43.2325 -75.8003 289° West 395 455 30,000 720 Climbing Boston Center
07:32AM 43.2697 -75.9450 289° West 405 466 31,000 1,260 Climbing Boston Center
07:33AM 43.2850 -76.1256 277° West 397 457 32,800 1,500 Climbing Boston Center
07:34AM 43.2800 -76.2792 267° West 402 463 34,100 1,200 Climbing Boston Center
07:35AM 43.2753 -76.4197 267° West 390 449 35,400 1,140 Climbing Cleveland Center
07:36AM 43.2722 -76.5653 268° West 384 442 36,500 900 Climbing Cleveland Center
07:37AM 43.2686 -76.7083 268° West 384 442 37,300 600 Climbing Cleveland Center
07:38AM 43.2650 -76.8511 268° West 384 442 37,700 300 Climbing Cleveland Center
07:39AM 43.2592 -76.9997 267° West 384 442 38,000 120 Climbing Cleveland Center
07:40AM 43.2511 -77.1428 266° West 384 442 38,000  Level Cleveland Center
07:41AM 43.2472 -77.2942 268° West 391 450 38,000  Level Cleveland Center
07:42AM 43.2431 -77.4453 268° West 397 457 38,000  Level Cleveland Center
07:43AM 43.2364 -77.5939 267° West 397 457 38,000  Level Cleveland Center
07:44AM 43.2300 -77.7453 267° West 402 463 38,000  Level Cleveland Center
07:45AM 43.2250 -77.8908 267° West 402 463 38,000  Level Cleveland Center
07:46AM 43.2178 -78.0364 266° West 402 463 38,000  Level Cleveland Center
07:47AM 43.2111 -78.2019 267° West 397 457 38,000  Level Cleveland Center
07:48AM 43.2056 -78.3475 267° West 402 463 38,000  Level Cleveland Center
07:49AM 43.1958 -78.4958 265° West 402 463 38,000  Level Cleveland Center
07:50AM 43.1900 -78.6442 267° West 402 463 38,000  Level Cleveland Center
07:51AM 43.1842 -78.7922 267° West 402 463 38,000  Level Cleveland Center
07:52AM 43.1781 -78.9433 267° West 402 463 38,000  Level Cleveland Center
07:53AM 43.1500 -79.1500 260° West 390 449 38,000  Level Toronto Center
07:54AM 43.1500 -79.2833 270° West 400 460 38,000  Level Toronto Center
07:55AM 43.1333 -79.4500 262° West 400 460 38,000  Level Toronto Center
07:56AM 43.1333 -79.5833 270° West 400 460 38,000  Level Toronto Center
07:57AM 43.1167 -79.7500 262° West 400 460 38,000  Level Toronto Center
07:58AM 43.1167 -79.9000 270° West 400 460 38,000  Level Toronto Center
07:59AM 43.1000 -80.0500 261° West 400 460 38,000  Level Toronto Center
08:00AM 43.1000 -80.2000 270° West 400 460 38,000  Level Toronto Center
08:01AM 43.0833 -80.3667 262° West 390 449 38,000  Level Toronto Center
08:02AM 43.0667 -80.5000 260° West 390 449 38,000  Level Toronto Center
08:03AM 43.0667 -80.6667 270° West 390 449 38,000  Level Toronto Center
08:04AM 43.0500 -80.8000 260° West 390 449 38,000  Level Toronto Center
08:05AM 43.0333 -80.9333 260° West 400 460 38,000  Level Toronto Center
08:06AM 43.0167 -81.1000 262° West 400 460 38,000  Level Toronto Center
08:07AM 43.0167 -81.2500 270° West 400 460 38,000  Level Toronto Center
08:08AM 43.0167 -81.4167 270° West 400 460 38,000  Level Toronto Center
08:09AM 43.0167 -81.5500 270° West 400 460 38,000  Level Toronto Center
08:10AM 43.0167 -81.7000 270° West 400 460 38,000  Level Toronto Center
08:11AM 43.0167 -81.8500 270° West 400 460 38,000  Level Toronto Center
08:12AM 43.0000 -82.0000 261° West 400 460 38,000  Level Toronto Center
08:13AM 43.0000 -82.1667 270° West 400 460 38,000  Level Toronto Center
08:14AM 43.0000 -82.3167 270° West 400 460 38,000  Level Toronto Center
08:15AM 43.0000 -82.4667 270° West 410 472 38,000 -240 Level Toronto Center
08:16AM 42.9833 -82.6500 263° West 420 483 37,600 -540 Descending Toronto Center
08:17AM 43.0008 -82.7350 286° West 410 472 37,100 -840 Descending Cleveland Center
08:18AM 42.9956 -82.8908 267° West 415 478 36,200 -900 Descending Cleveland Center
08:19AM 42.9922 -83.0528 268° West 421 484 35,300 -900 Descending Cleveland Center
08:20AM 42.9867 -83.2169 267° West 421 484 34,400 -900 Descending Cleveland Center
08:21AM 42.9786 -83.3814 266° West 426 490 33,500 -900 Descending Cleveland Center
08:22AM 42.9742 -83.5514 268° West 438 504 32,600 -780 Descending Cleveland Center
08:23AM 42.9656 -83.7242 266° West 449 517 32,000 -300 Descending Cleveland Center
08:24AM 42.9525 -83.8936 264° West 454 522 32,000  Level Cleveland Center
08:25AM 42.9344 -84.0800 263° West 462 532 32,000  Level Cleveland Center
08:26AM 42.9167 -84.2519 262° West 462 532 32,000  Level Cleveland Center
08:27AM 42.8964 -84.4625 263° West 459 528 32,000  Level Chicago Center
08:28AM 42.8789 -84.6325 262° West 457 526 32,000  Level Chicago Center
08:29AM 42.8614 -84.8044 262° West 460 529 32,000  Level Chicago Center
08:30AM 42.8442 -84.9742 262° West 457 526 32,000  Level Chicago Center
08:31AM 42.8256 -85.1447 262° West 457 526 32,000 -1,020 Level Chicago Center
08:32AM 42.8036 -85.3486 262° West 458 527 30,000 -1,980 Descending Chicago Center
08:33AM 42.7847 -85.5181 261° West 457 526 28,000 -1,980 Descending Chicago Center
08:34AM 42.7539 -85.6850 256° West 458 527 26,000 -2,040 Descending Chicago Center
08:35AM 42.7233 -85.8514 256° West 452 520 23,900 -1,980 Descending Chicago Center
08:36AM 42.6956 -86.0056 256° West 436 502 22,000 -1,860 Descending Chicago Center
08:37AM 42.6678 -86.1531 256° West 414 476 20,100 -1,020 Descending Chicago Center
08:38AM 42.6356 -86.3275 256° West 400 460 20,000 -960 Descending Chicago Center
08:40AM 42.6083 -86.4744 256° West 405 466 18,200 -1,800 Descending Chicago Center
08:41AM 42.5806 -86.6181 255° West 398 458 16,400 -1,920 Descending Chicago Center
08:42AM 42.5525 -86.7569 255° West 373 429 14,300 -2,040 Descending Chicago Center
08:43AM 42.5178 -86.8844 250° West 365 420 12,300 -1,920 Descending Chicago Center
08:44AM 42.4836 -87.0100 250° West 360 414 10,400 -1,140 Descending Chicago Center
08:45AM 42.4508 -87.1325 250° West 352 405 10,000 -420 Descending Chicago Center
08:46AM 42.4203 -87.2400 249° West 317 365 9,600 -1,200 Descending Chicago Center
08:47AM 42.3919 -87.3522 251° West 270 311 7,600 -1,260 Descending Chicago Center
08:48AM 42.3672 -87.4436 250° West 261 300 7,000 -300 Descending Chicago Center
08:49AM 42.3411 -87.5128 243° Southwest 222 255 7,000  Level Chicago Center
08:50AM 42.2942 -87.5653 220° Southwest 222 255 7,000 -300 Level Chicago Center
08:51AM 42.2494 -87.6161 220° Southwest 216 249 6,500 -1,080 Descending Chicago Center
08:52AM 42.2078 -87.6606 218° Southwest 200 230 4,900 -1,260 Descending Chicago Center
08:53AM 42.1653 -87.7111 221° Southwest 177 204 4,000 -540 Descending Chicago Center
08:54AM 42.1314 -87.7472 218° Southwest 161 185 3,900 -420 Descending Chicago Center
08:55AM 42.0986 -87.7847 220° Southwest 157 181 3,200 -780 Descending Chicago Center
08:56AM 42.0678 -87.8214 221° Southwest 153 176 2,400 -780 Descending Chicago Center
08:57AM 42.0414 -87.8497 219° Southwest 139 160 1,700 -600 Descending Chicago Center
08:58AM 42.0147 -87.8778 218° Southwest 125 144 1,200 -540 Descending Chicago Center
09:00AM 41.9817 -87.9067 217° Southwest  Level Estimated